createdAt,value
2023-05-02T00:00:16.139Z,47.03
2023-05-02T00:02:44.346Z,53.35
2023-05-02T00:05:12.644Z,55.47
2023-05-02T00:07:40.493Z,54.85
2023-05-02T00:10:09.327Z,46.20
2023-05-02T00:12:37.234Z,49.25
2023-05-02T00:15:05.543Z,50.80
2023-05-02T00:17:34.794Z,48.85
2023-05-02T00:20:04.401Z,46.33
2023-05-02T00:22:32.248Z,53.00
2023-05-02T00:25:00.358Z,47.58
2023-05-02T00:27:28.225Z,59.28
2023-05-02T00:29:56.065Z,59.35
2023-05-02T00:32:23.958Z,54.03
2023-05-02T00:34:53.159Z,48.38
2023-05-02T00:37:21.230Z,48.90
2023-05-02T00:39:49.213Z,52.38
2023-05-02T00:42:17.039Z,54.35
2023-05-02T00:44:44.851Z,56.45
2023-05-02T00:47:12.820Z,57.63
2023-05-02T00:49:40.657Z,61.38
2023-05-02T00:52:10.516Z,64.68
2023-05-02T00:54:39.317Z,65.43
2023-05-02T00:57:07.240Z,72.93
2023-05-02T00:59:36.028Z,61.33
2023-05-02T01:02:15.742Z,71.13
2023-05-02T01:04:54.932Z,80.72
2023-05-02T01:07:36.568Z,72.60
2023-05-02T01:10:20.515Z,72.63
2023-05-02T01:12:55.530Z,73.72
2023-05-02T01:15:24.620Z,78.22
2023-05-02T01:17:55.085Z,75.68
2023-05-02T01:20:26.982Z,74.57
2023-05-02T01:23:01.514Z,83.30
2023-05-02T01:25:37.942Z,80.03
2023-05-02T01:28:26.724Z,83.47
2023-05-02T01:30:57.844Z,76.63
2023-05-02T01:33:28.005Z,80.75
2023-05-02T01:35:58.573Z,74.35
2023-05-02T01:38:28.571Z,75.32
2023-05-02T01:40:58.271Z,79.22
2023-05-02T01:43:27.618Z,83.05
2023-05-02T01:48:28.621Z,75.03
2023-05-02T01:50:57.250Z,75.28
2023-05-02T01:53:26.780Z,84.18
2023-05-02T01:55:56.206Z,79.40
2023-05-02T01:58:29.427Z,80.95
2023-05-02T02:01:01.992Z,82.70
2023-05-02T02:03:32.181Z,79.78
2023-05-02T02:06:02.316Z,79.75
2023-05-02T02:08:30.254Z,76.13
2023-05-02T02:11:01.603Z,74.70
2023-05-02T02:13:44.922Z,79.97
2023-05-02T02:16:17.104Z,78.88
2023-05-02T02:18:46.847Z,82.47
2023-05-02T02:21:19.677Z,84.18
2023-05-02T02:23:50.464Z,86.53
2023-05-02T02:26:20.655Z,86.03
2023-05-02T02:28:49.220Z,82.43
2023-05-02T02:31:18.465Z,83.10
2023-05-02T02:36:20.684Z,99.72
2023-05-02T02:38:58.082Z,92.43
2023-05-02T02:41:29.501Z,95.38
2023-05-02T02:44:02.994Z,93.10
2023-05-02T02:46:39.700Z,91.57
2023-05-02T02:49:36.731Z,89.97
2023-05-02T02:52:11.481Z,91.18
2023-05-02T02:54:46.334Z,99.45
2023-05-02T02:57:18.689Z,97.43
2023-05-02T02:59:54.906Z,97.72
2023-05-02T03:02:30.301Z,98.03
2023-05-02T03:04:59.678Z,99.00
2023-05-02T03:09:58.129Z,93.85
2023-05-02T03:12:26.194Z,102.07
2023-05-02T03:14:54.164Z,95.38
2023-05-02T03:17:24.263Z,95.03
2023-05-02T03:19:55.312Z,91.93
2023-05-02T03:22:23.770Z,87.28
2023-05-02T03:24:51.700Z,86.65
2023-05-02T03:27:19.860Z,97.40
2023-05-02T03:29:48.153Z,90.93
2023-05-02T03:32:16.635Z,98.50
2023-05-02T03:34:44.879Z,92.43
2023-05-02T03:37:14.445Z,91.30
2023-05-02T03:39:42.244Z,95.63
2023-05-02T03:42:10.498Z,93.55
2023-05-02T03:44:38.744Z,92.25
2023-05-02T03:47:07.397Z,99.65
2023-05-02T03:49:41.149Z,92.75
2023-05-02T03:52:09.981Z,94.32
2023-05-02T03:54:40.199Z,91.35
2023-05-02T03:57:08.827Z,56.83
2023-05-02T03:59:37.269Z,52.45
2023-05-02T04:02:14.155Z,53.78
2023-05-02T04:04:46.213Z,50.83
2023-05-02T04:07:19.242Z,39.13
2023-05-02T04:09:52.934Z,53.42
2023-05-02T04:12:21.697Z,55.20
2023-05-02T04:14:52.147Z,49.47
2023-05-02T04:17:22.696Z,36.58
2023-05-02T04:19:51.505Z,45.08
2023-05-02T04:22:20.947Z,41.50
2023-05-02T04:24:56.056Z,43.53
2023-05-02T04:27:25.403Z,49.22
2023-05-02T04:29:54.336Z,55.40
2023-05-02T04:32:23.174Z,46.38
2023-05-02T04:34:51.632Z,50.40
2023-05-02T04:37:21.054Z,41.38
2023-05-02T04:39:49.141Z,42.80
2023-05-02T04:42:25.755Z,40.75
2023-05-02T04:45:00.387Z,42.33
2023-05-02T04:47:28.495Z,37.65
2023-05-02T04:49:56.363Z,33.03
2023-05-02T04:52:24.512Z,40.83
2023-05-02T04:54:52.426Z,37.65
2023-05-02T04:57:21.355Z,24.40
2023-05-02T04:59:55.747Z,26.27
2023-05-02T05:02:25.809Z,20.02
2023-05-02T05:04:54.841Z,20.90
2023-05-02T05:07:22.651Z,16.65
2023-05-02T05:09:53.509Z,17.95
2023-05-02T05:12:23.687Z,17.52
2023-05-02T05:14:51.679Z,17.15
2023-05-02T05:17:22.928Z,18.65
2023-05-02T05:19:50.864Z,16.00
2023-05-02T05:22:19.876Z,17.92
2023-05-02T05:24:53.495Z,17.08
2023-05-02T05:27:23.220Z,16.40
2023-05-02T05:29:51.114Z,14.25
2023-05-02T05:32:18.968Z,18.27
2023-05-02T05:34:52.900Z,18.73
2023-05-02T05:37:22.531Z,17.52
2023-05-02T05:39:50.464Z,17.60
2023-05-02T05:42:18.713Z,17.83
2023-05-02T05:44:49.886Z,16.23
2023-05-02T05:47:21.971Z,14.38
2023-05-02T05:49:55.378Z,17.13
2023-05-02T05:52:26.209Z,14.80
2023-05-02T05:54:56.661Z,16.23
2023-05-02T05:57:25.951Z,13.10
2023-05-02T05:59:54.902Z,15.48
2023-05-02T06:02:23.083Z,16.33
2023-05-02T06:04:51.183Z,15.75
2023-05-02T06:07:23.409Z,13.77
2023-05-02T06:09:51.412Z,13.73
2023-05-02T06:12:19.323Z,16.52
2023-05-02T06:14:48.081Z,15.05
2023-05-02T06:17:16.178Z,13.07
2023-05-02T06:19:43.955Z,13.98
2023-05-02T06:22:13.291Z,11.93
2023-05-02T06:27:10.076Z,14.57
2023-05-02T06:29:37.898Z,13.18
2023-05-02T06:32:06.608Z,15.57
2023-05-02T06:34:34.800Z,12.88
2023-05-02T06:37:02.801Z,15.52
2023-05-02T06:39:30.711Z,13.60
2023-05-02T06:41:59.977Z,15.93
2023-05-02T06:44:29.051Z,12.10
2023-05-02T06:46:57.192Z,15.00
2023-05-02T06:49:25.089Z,15.82
2023-05-02T06:51:52.925Z,13.40
2023-05-02T06:54:21.810Z,16.33
2023-05-02T06:56:49.705Z,14.60
2023-05-02T06:59:18.884Z,12.93
2023-05-02T07:01:46.762Z,14.75
2023-05-02T07:04:14.632Z,12.48
2023-05-02T07:06:42.529Z,16.05
2023-05-02T07:09:10.502Z,13.65
2023-05-02T07:11:38.392Z,14.45
2023-05-02T07:14:06.483Z,14.93
2023-05-02T07:16:35.878Z,14.93
2023-05-02T07:19:04.758Z,14.38
2023-05-02T07:21:32.598Z,14.38
2023-05-02T07:24:00.790Z,13.38
2023-05-02T07:26:29.488Z,16.05
2023-05-02T07:28:57.356Z,12.32
2023-05-02T07:31:25.162Z,11.30
2023-05-02T07:33:54.398Z,11.18
2023-05-02T07:38:49.827Z,10.50
2023-05-02T07:41:17.679Z,10.88
2023-05-02T07:43:45.541Z,10.18
2023-05-02T07:46:13.645Z,7.80
2023-05-02T07:48:42.739Z,8.77
2023-05-02T07:51:12.729Z,9.05
2023-05-02T07:53:40.633Z,10.32
2023-05-02T07:56:09.469Z,10.50
2023-05-02T07:58:37.681Z,7.97
2023-05-02T08:01:05.829Z,8.70
2023-05-02T08:03:33.865Z,6.45
2023-05-02T08:06:03.102Z,5.13
2023-05-02T08:10:59.899Z,8.02
2023-05-02T08:13:28.551Z,5.38
2023-05-02T08:15:58.199Z,5.63
2023-05-02T08:18:26.365Z,5.75
2023-05-02T08:20:55.672Z,5.63
2023-05-02T08:25:52.720Z,4.82
2023-05-02T08:28:20.564Z,3.80
2023-05-02T08:30:49.033Z,3.58
2023-05-02T08:33:16.895Z,5.80
2023-05-02T08:35:44.772Z,5.75
2023-05-02T08:38:12.570Z,4.70
2023-05-02T08:40:42.715Z,5.65
2023-05-02T08:43:14.023Z,7.68
2023-05-02T08:45:44.073Z,4.75
2023-05-02T08:48:13.483Z,5.10
2023-05-02T08:50:44.453Z,4.78
2023-05-02T08:53:14.370Z,6.68
2023-05-02T08:55:44.079Z,4.78
2023-05-02T08:58:15.380Z,5.20
2023-05-02T09:00:44.989Z,3.88
2023-05-02T09:03:24.988Z,4.05
2023-05-02T09:05:55.239Z,5.07
2023-05-02T09:08:24.274Z,6.03
2023-05-02T09:10:52.604Z,4.13
2023-05-02T09:13:32.965Z,4.63
2023-05-02T09:16:02.261Z,5.85
2023-05-02T09:18:31.878Z,9.23
2023-05-02T09:21:01.312Z,6.28
2023-05-02T09:23:37.042Z,7.95
2023-05-02T09:26:12.989Z,5.18
2023-05-02T09:28:43.590Z,10.82
2023-05-02T09:31:15.549Z,6.18
2023-05-02T09:33:47.062Z,6.93
2023-05-02T09:36:17.002Z,6.67
2023-05-02T09:38:48.384Z,4.50
2023-05-02T09:41:17.887Z,5.05
2023-05-02T09:43:56.547Z,5.97
2023-05-02T09:46:24.461Z,5.07
2023-05-02T09:48:56.909Z,3.45
2023-05-02T09:51:26.123Z,5.80
2023-05-02T09:56:23.378Z,4.78
2023-05-02T09:58:53.203Z,4.80
2023-05-02T10:03:50.188Z,5.63
2023-05-02T10:06:18.365Z,5.45
2023-05-02T10:08:47.571Z,4.30
2023-05-02T10:13:45.006Z,3.70
2023-05-02T10:16:21.523Z,4.18
2023-05-02T10:18:57.775Z,7.18
2023-05-02T10:21:27.807Z,5.07
2023-05-02T10:23:55.998Z,7.80
2023-05-02T10:26:24.847Z,7.70
2023-05-02T10:28:53.213Z,9.55
2023-05-02T10:31:23.154Z,6.40
2023-05-02T10:33:52.661Z,5.10
2023-05-02T10:36:22.954Z,5.25
2023-05-02T10:38:52.404Z,5.72
2023-05-02T10:41:23.858Z,8.23
2023-05-02T10:43:52.153Z,6.28
2023-05-02T10:46:34.712Z,8.20
2023-05-02T10:49:04.481Z,8.20
2023-05-02T10:51:32.849Z,6.75
2023-05-02T10:54:23.356Z,7.23
2023-05-02T10:57:06.307Z,6.53
2023-05-02T10:59:36.572Z,6.43
2023-05-02T11:02:07.325Z,8.18
2023-05-02T11:05:01.743Z,8.90
2023-05-02T11:07:30.529Z,4.72
2023-05-02T11:10:27.409Z,7.15
2023-05-02T11:12:57.022Z,7.10
2023-05-02T11:15:58.064Z,6.53
2023-05-02T11:18:27.319Z,5.80
2023-05-02T11:21:29.977Z,5.18
2023-05-02T11:24:35.642Z,7.60
2023-05-02T11:27:38.504Z,8.65
2023-05-02T11:30:08.772Z,5.57
2023-05-02T11:33:17.213Z,5.97
2023-05-02T11:35:46.877Z,5.85
2023-05-02T11:38:18.171Z,3.95
2023-05-02T11:40:57.301Z,6.57
2023-05-02T11:45:55.098Z,9.35
2023-05-02T11:48:27.218Z,6.57
2023-05-02T11:50:57.529Z,7.97
2023-05-02T11:53:29.383Z,9.00
2023-05-02T11:55:58.707Z,8.20
2023-05-02T11:58:29.861Z,7.47
2023-05-02T12:00:58.091Z,7.68
2023-05-02T12:03:29.578Z,7.70
2023-05-02T12:05:58.621Z,7.38
2023-05-02T12:08:29.868Z,9.25
2023-05-02T12:10:58.059Z,9.18
2023-05-02T12:13:27.352Z,8.63
2023-05-02T12:15:56.013Z,8.20
2023-05-02T12:18:27.030Z,6.90
2023-05-02T12:20:56.635Z,5.30
2023-05-02T12:23:26.316Z,7.45
2023-05-02T12:25:55.614Z,8.68
2023-05-02T12:28:24.383Z,10.07
2023-05-02T12:30:52.600Z,9.70
2023-05-02T12:33:20.766Z,10.73
2023-05-02T12:35:48.947Z,9.45
2023-05-02T12:38:18.679Z,14.75
2023-05-02T12:40:51.707Z,8.05
2023-05-02T12:43:22.009Z,12.45
2023-05-02T12:45:50.143Z,10.38
2023-05-02T12:48:26.343Z,8.27
2023-05-02T12:50:55.695Z,9.85
2023-05-02T12:53:43.192Z,9.57
2023-05-02T12:56:11.895Z,10.43
2023-05-02T12:58:45.815Z,10.07
2023-05-02T13:01:13.958Z,10.70
2023-05-02T13:03:42.480Z,8.02
2023-05-02T13:06:11.183Z,7.43
2023-05-02T13:08:39.258Z,12.88
2023-05-02T13:11:07.115Z,7.15
2023-05-02T13:13:35.540Z,5.45
2023-05-02T13:16:05.071Z,6.10
2023-05-02T13:18:33.156Z,9.68
2023-05-02T13:21:01.183Z,6.22
2023-05-02T13:23:28.977Z,5.75
2023-05-02T13:25:56.853Z,10.95
2023-05-02T13:28:25.866Z,7.10
2023-05-02T13:30:53.854Z,8.45
2023-05-02T13:33:23.126Z,8.32
2023-05-02T13:38:18.778Z,8.70
2023-05-02T13:40:46.611Z,6.30
2023-05-02T13:43:14.666Z,13.55
2023-05-02T13:45:42.551Z,8.73
2023-05-02T13:48:10.513Z,6.50
2023-05-02T13:50:39.703Z,5.28
2023-05-02T13:55:35.188Z,7.68
2023-05-02T13:58:03.111Z,6.15
2023-05-02T14:00:30.938Z,7.50
2023-05-02T14:02:58.911Z,4.68
2023-05-02T14:05:26.833Z,6.85
2023-05-02T14:07:56.052Z,13.32
2023-05-02T14:12:53.085Z,5.43
2023-05-02T14:15:20.954Z,10.95
2023-05-02T14:17:57.613Z,9.45
2023-05-02T14:20:25.785Z,7.45
2023-05-02T14:22:53.696Z,10.98
2023-05-02T14:25:22.909Z,8.13
2023-05-02T14:30:18.820Z,13.00
2023-05-02T14:32:46.821Z,8.50
2023-05-02T14:35:14.738Z,8.85
2023-05-02T14:37:45.009Z,10.40
2023-05-02T14:40:14.030Z,6.60
2023-05-02T14:42:43.481Z,9.05
2023-05-02T14:45:12.393Z,6.20
2023-05-02T14:47:40.488Z,9.07
2023-05-02T14:50:09.211Z,11.07
2023-05-02T14:52:37.046Z,8.00
2023-05-02T14:55:05.409Z,8.15
2023-05-02T14:57:33.764Z,7.83
2023-05-02T15:00:04.629Z,8.98
2023-05-02T15:02:32.790Z,8.38
2023-05-02T15:05:01.437Z,10.98
2023-05-02T15:07:29.382Z,8.82
2023-05-02T15:09:57.270Z,10.45
2023-05-02T15:12:26.232Z,7.95
2023-05-02T15:14:54.083Z,9.18
2023-05-02T15:17:23.278Z,9.18
2023-05-02T15:19:51.233Z,7.93
2023-05-02T15:22:19.271Z,9.43
2023-05-02T15:24:47.124Z,7.93
2023-05-02T15:27:15.219Z,7.72
2023-05-02T15:29:43.105Z,10.68
2023-05-02T15:32:11.046Z,8.70
2023-05-02T15:34:40.312Z,7.53
2023-05-02T15:37:08.144Z,10.05
2023-05-02T15:39:35.936Z,12.52
2023-05-02T15:42:04.826Z,15.73
2023-05-02T15:44:35.553Z,10.57
2023-05-02T15:47:03.408Z,9.23
2023-05-02T15:49:33.068Z,11.63
2023-05-02T15:52:02.530Z,11.55
2023-05-02T15:54:32.034Z,9.15
2023-05-02T15:57:00.903Z,8.85
2023-05-02T15:59:28.816Z,9.95
2023-05-02T16:01:56.797Z,10.40
2023-05-02T16:04:25.216Z,10.02
2023-05-02T16:06:53.288Z,12.60
2023-05-02T16:09:22.533Z,8.15
2023-05-02T16:11:50.370Z,12.27
2023-05-02T16:14:18.183Z,8.02
2023-05-02T16:16:46.066Z,9.90
2023-05-02T16:19:13.883Z,10.73
2023-05-02T16:21:42.879Z,12.05
2023-05-02T16:24:10.923Z,19.95
2023-05-02T16:26:40.572Z,12.55
2023-05-02T16:29:08.504Z,12.80
2023-05-02T16:31:36.416Z,9.95
2023-05-02T16:34:04.371Z,12.13
2023-05-02T16:36:33.277Z,8.38
2023-05-02T16:39:01.145Z,6.55
2023-05-02T16:41:29.016Z,7.40
2023-05-02T16:43:58.396Z,9.20
2023-05-02T16:46:26.748Z,8.07
2023-05-02T16:48:54.597Z,8.27
2023-05-02T16:51:22.640Z,7.63
2023-05-02T16:53:50.433Z,9.32
2023-05-02T16:56:18.283Z,8.10
2023-05-02T16:58:46.492Z,11.43
2023-05-02T17:01:15.761Z,9.38
2023-05-02T17:06:11.525Z,5.03
2023-05-02T17:08:39.508Z,8.65
2023-05-02T17:11:07.854Z,10.27
2023-05-02T17:13:36.470Z,15.70
2023-05-02T17:16:04.544Z,7.45
2023-05-02T17:18:34.445Z,7.97
2023-05-02T17:21:03.952Z,6.25
2023-05-02T17:23:32.118Z,10.52
2023-05-02T17:26:00.081Z,8.38
2023-05-02T17:28:28.065Z,11.98
2023-05-02T17:30:56.137Z,6.93
2023-05-02T17:33:25.373Z,11.07
2023-05-02T17:35:54.552Z,32.47
2023-05-02T17:40:50.029Z,11.57
2023-05-02T17:43:17.847Z,8.43
2023-05-02T17:45:45.939Z,9.43
2023-05-02T17:48:13.912Z,6.00
2023-05-02T17:50:42.032Z,7.22
2023-05-02T17:53:11.237Z,15.32
2023-05-02T17:55:39.730Z,9.65
2023-05-02T17:58:07.804Z,8.98
2023-05-02T18:00:35.703Z,8.27
2023-05-02T18:03:03.673Z,8.63
2023-05-02T18:05:31.625Z,7.57
2023-05-02T18:07:59.704Z,6.55
2023-05-02T18:10:29.397Z,6.80
2023-05-02T18:12:57.236Z,11.70
2023-05-02T18:15:25.035Z,8.75
2023-05-02T18:17:53.311Z,7.00
2023-05-02T18:20:21.933Z,6.95
2023-05-02T18:22:49.827Z,8.82
2023-05-02T18:25:17.772Z,8.73
2023-05-02T18:27:46.960Z,7.05
2023-05-02T18:30:14.876Z,6.13
2023-05-02T18:32:42.693Z,7.20
2023-05-02T18:35:11.386Z,12.60
2023-05-02T18:37:39.344Z,6.18
2023-05-02T18:40:08.479Z,6.82
2023-05-02T18:42:36.351Z,7.43
2023-05-02T18:45:06.497Z,7.20
2023-05-02T18:47:34.931Z,10.13
2023-05-02T18:50:04.905Z,8.07
2023-05-02T18:52:32.870Z,8.18
2023-05-02T18:55:02.016Z,7.55
2023-05-02T18:59:58.814Z,9.30
2023-05-02T19:02:28.415Z,9.52
2023-05-02T19:04:56.306Z,9.40
2023-05-02T19:07:24.188Z,5.38
2023-05-02T19:09:52.257Z,9.65
2023-05-02T19:12:20.134Z,9.00
2023-05-02T19:14:50.283Z,8.57
2023-05-02T19:17:18.138Z,9.10
2023-05-02T19:19:48.099Z,6.85
2023-05-02T19:22:16.087Z,8.90
2023-05-02T19:24:43.902Z,7.43
2023-05-02T19:27:11.826Z,5.15
2023-05-02T19:29:39.769Z,6.38
2023-05-02T19:32:08.542Z,6.07
2023-05-02T19:34:37.534Z,8.82
2023-05-02T19:37:06.743Z,8.75
2023-05-02T19:39:34.743Z,8.65
2023-05-02T19:42:03.130Z,6.88
2023-05-02T19:44:31.261Z,9.30
2023-05-02T19:46:59.194Z,17.42
2023-05-02T19:49:27.061Z,12.35
2023-05-02T19:51:54.892Z,15.35
2023-05-02T19:54:24.258Z,12.40
2023-05-02T19:59:19.711Z,12.23
2023-05-02T20:01:47.625Z,11.07
2023-05-02T20:04:15.536Z,14.95
2023-05-02T20:06:43.657Z,12.43
2023-05-02T20:09:11.824Z,10.32
2023-05-02T20:11:41.050Z,10.70
2023-05-02T20:14:08.880Z,9.63
2023-05-02T20:16:36.778Z,9.45
2023-05-02T20:19:04.837Z,17.13
2023-05-02T20:21:32.750Z,12.38
2023-05-02T20:24:00.713Z,10.00
2023-05-02T20:26:31.184Z,10.02
2023-05-02T20:29:00.588Z,9.82
2023-05-02T20:33:56.229Z,12.13
2023-05-02T20:36:24.040Z,11.02
2023-05-02T20:38:51.893Z,12.15
2023-05-02T20:41:20.223Z,9.63
2023-05-02T20:43:48.031Z,6.85
2023-05-02T20:46:17.329Z,8.95
2023-05-02T20:51:13.046Z,8.82
2023-05-02T20:53:41.021Z,9.68
2023-05-02T20:56:08.931Z,11.95
2023-05-02T20:58:36.818Z,8.18
2023-05-02T21:01:04.683Z,9.02
2023-05-02T21:03:36.705Z,8.40
2023-05-02T21:06:04.799Z,10.93
2023-05-02T21:08:32.658Z,10.90
2023-05-02T21:11:01.074Z,12.48
2023-05-02T21:13:28.972Z,12.83
2023-05-02T21:15:56.868Z,11.13
2023-05-02T21:18:24.810Z,10.30
2023-05-02T21:20:53.986Z,9.45
2023-05-02T21:23:21.862Z,10.00
2023-05-02T21:25:49.670Z,11.13
2023-05-02T21:28:17.524Z,11.25
2023-05-02T21:30:45.386Z,14.43
2023-05-02T21:33:15.485Z,10.98
2023-05-02T21:35:43.315Z,16.80
2023-05-02T21:38:12.545Z,8.60
2023-05-02T21:40:40.426Z,18.80
2023-05-02T21:43:08.328Z,9.38
2023-05-02T21:45:43.871Z,16.70
2023-05-02T21:48:11.957Z,8.55
2023-05-02T21:50:40.459Z,10.90
2023-05-02T21:53:08.311Z,12.73
2023-05-02T21:55:37.717Z,10.32
2023-05-02T22:00:33.564Z,12.65
2023-05-02T22:03:07.513Z,10.15
2023-05-02T22:05:35.828Z,8.10
2023-05-02T22:08:03.684Z,8.93
2023-05-02T22:10:32.170Z,9.35
2023-05-02T22:13:01.432Z,14.70
2023-05-02T22:17:57.198Z,14.68
2023-05-02T22:20:26.847Z,10.05
2023-05-02T22:22:54.830Z,11.40
2023-05-02T22:25:22.907Z,13.05
2023-05-02T22:27:51.164Z,10.25
2023-05-02T22:30:20.387Z,16.92
2023-05-02T22:32:48.258Z,14.60
2023-05-02T22:35:16.597Z,12.98
2023-05-02T22:37:44.424Z,12.77
2023-05-02T22:40:13.526Z,17.48
2023-05-02T22:42:41.431Z,11.45
2023-05-02T22:45:10.752Z,13.25
2023-05-02T22:50:11.098Z,14.32
2023-05-02T22:52:39.126Z,12.68
2023-05-02T22:55:09.327Z,14.60
2023-05-02T22:57:37.545Z,10.82
2023-05-02T23:00:06.652Z,13.13
2023-05-02T23:02:34.774Z,11.55
2023-05-02T23:05:04.328Z,11.70
2023-05-02T23:07:32.181Z,12.40
2023-05-02T23:10:00.237Z,16.73
2023-05-02T23:12:28.423Z,10.70
2023-05-02T23:14:56.898Z,11.57
2023-05-02T23:17:24.777Z,9.87
2023-05-02T23:19:52.627Z,13.57
2023-05-02T23:22:21.886Z,14.75
2023-05-02T23:24:49.758Z,18.70
2023-05-02T23:27:17.581Z,14.85
2023-05-02T23:29:46.042Z,9.85
2023-05-02T23:32:14.154Z,8.43
2023-05-02T23:34:42.028Z,12.98
2023-05-02T23:37:10.305Z,16.85
2023-05-02T23:39:39.748Z,13.57
2023-05-02T23:44:35.654Z,16.15
2023-05-02T23:47:03.531Z,12.68
2023-05-02T23:49:31.566Z,11.00
2023-05-02T23:51:59.456Z,15.52
2023-05-02T23:54:30.749Z,16.80
2023-05-02T23:57:01.079Z,10.27
